| time (UTC) | temp F | wind direction | speed MPH | gust MPH | rain 1hr in | rain 24hr in | rain mn in | humidity % | barometer mb |
| 20260510211553 | 65 | 274 | 4.0 | 14.0 | 0.00 | 0.16 | 0.10 | 51 | 1010.9 |
| 20260510211052 | 65 | 0 | 1.0 | 13.0 | 0.00 | 0.16 | 0.10 | 54 | 1010.9 |
| 20260510210551 | 65 | 0 | 6.0 | 14.0 | 0.00 | 0.16 | 0.10 | 54 | 1010.8 |
| 20260510210058 | 65 | 297 | 7.0 | 14.0 | 0.00 | 0.16 | 0.10 | 54 | 1010.8 |
| 20260510205551 | 65 | 286 | 5.0 | 17.0 | 0.00 | 0.20 | 0.10 | 53 | 1010.8 |
| 20260510205051 | 65 | 330 | 6.0 | 17.0 | 0.00 | 0.20 | 0.10 | 53 | 1010.8 |
| 20260510204555 | 65 | 278 | 2.0 | 15.0 | 0.00 | 0.20 | 0.10 | 56 | 1010.6 |
| 20260510204053 | 65 | 0 | 7.0 | 13.0 | 0.00 | 0.20 | 0.10 | 57 | 1010.8 |
| 20260510203551 | 64 | 0 | 1.0 | 13.0 | 0.00 | 0.20 | 0.10 | 59 | 1010.7 |
| 20260510203100 | 64 | 0 | 3.0 | 13.0 | 0.00 | 0.20 | 0.10 | 59 | 1010.7 |
| 20260510202553 | 64 | 0 | 0.0 | 13.0 | 0.00 | 0.20 | 0.10 | 61 | 1010.7 |
| 20260510202053 | 64 | 0 | 2.0 | 13.0 | 0.00 | 0.20 | 0.10 | 60 | 1010.7 |
| 20260510201558 | 65 | 287 | 2.0 | 13.0 | 0.00 | 0.20 | 0.10 | 59 | 1010.7 |
| 20260510201053 | 65 | 0 | 1.0 | 18.0 | 0.00 | 0.20 | 0.10 | 61 | 1010.7 |
| 20260510200552 | 64 | 0 | 3.0 | 18.0 | 0.00 | 0.20 | 0.10 | 63 | 1010.8 |
| 20260510200059 | 64 | 265 | 4.0 | 18.0 | 0.00 | 0.20 | 0.10 | 62 | 1010.8 |
| 20260510195551 | 64 | 0 | 1.0 | 17.0 | 0.00 | 0.30 | 0.10 | 66 | 1010.9 |
| 20260510195051 | 64 | 234 | 6.0 | 16.0 | 0.00 | 0.30 | 0.10 | 67 | 1010.9 |
| 20260510194553 | 63 | 0 | 0.0 | 9.0 | 0.00 | 0.30 | 0.10 | 73 | 1011.0 |
| 20260510194052 | 63 | 0 | 0.0 | 0.0 | 0.01 | 0.30 | 0.10 | 73 | 1010.9 |
| 20260510193552 | 63 | 0 | 0.0 | 3.0 | 0.01 | 0.30 | 0.10 | 75 | 1011.0 |
| 20260510193058 | 62 | 0 | 0.0 | 3.0 | 0.01 | 0.30 | 0.10 | 76 | 1010.9 |
| 20260510192552 | 62 | 0 | 0.0 | 0.0 | 0.01 | 0.30 | 0.10 | 76 | 1010.9 |
| 20260510192053 | 62 | 0 | 0.0 | 0.0 | 0.01 | 0.30 | 0.10 | 78 | 1011.0 |
| 20260510191558 | 62 | 0 | 0.0 | 0.0 | 0.01 | 0.30 | 0.10 | 80 | 1010.9 |
| 20260510191053 | 61 | 0 | 0.0 | 1.0 | 0.01 | 0.30 | 0.10 | 81 | 1011.1 |
| 20260510190555 | 61 | 0 | 0.0 | 5.0 | 0.02 | 0.30 | 0.10 | 84 | 1011.1 |
| 20260510190108 | 60 | 0 | 0.0 | 5.0 | 0.05 | 0.30 | 0.10 | 84 | 1011.3 |
| 20260510185551 | 59 | 0 | 0.0 | 1.0 | 0.05 | 0.40 | 0.10 | 85 | 1011.2 |
| 20260510185049 | 59 | 0 | 0.0 | 0.0 | 0.05 | 0.40 | 0.10 | 85 | 1011.2 |
| 20260510184618 | 58 | 0 | 0.0 | 0.0 | 0.05 | 0.40 | 0.10 | 87 | 1011.4 |
| 20260510184049 | 58 | 0 | 0.0 | 0.0 | 0.04 | 0.39 | 0.09 | 90 | 1011.5 |
| 20260510183554 | 57 | 0 | 0.0 | 0.0 | 0.04 | 0.39 | 0.09 | 89 | 1011.5 |
| 20260510183055 | 56 | 0 | 0.0 | 0.0 | 0.04 | 0.39 | 0.09 | 91 | 1011.5 |
| 20260510182552 | 56 | 0 | 0.0 | 0.0 | 0.04 | 0.39 | 0.09 | 92 | 1011.5 |
| 20260510182050 | 55 | 0 | 0.0 | 0.0 | 0.05 | 0.39 | 0.09 | 93 | 1011.5 |
| 20260510181601 | 55 | 0 | 0.0 | 0.0 | 0.06 | 0.39 | 0.09 | 93 | 1011.6 |
| 20260510181051 | 54 | 0 | 0.0 | 0.0 | 0.06 | 0.39 | 0.09 | 93 | 1011.8 |
| 20260510180549 | 54 | 0 | 0.0 | 0.0 | 0.05 | 0.37 | 0.07 | 92 | 1011.7 |
| 20260510180112 | 54 | 0 | 0.0 | 0.0 | 0.03 | 0.35 | 0.05 | 92 | 1011.9 |
| 20260510175551 | 54 | 0 | 0.0 | 0.0 | 0.03 | 0.42 | 0.05 | 91 | 1011.8 |
| 20260510175048 | 54 | 0 | 0.0 | 0.0 | 0.03 | 0.42 | 0.05 | 91 | 1011.7 |
| 20260510174554 | 54 | 0 | 0.0 | 0.0 | 0.03 | 0.42 | 0.05 | 91 | 1011.6 |
| 20260510174050 | 55 | 0 | 0.0 | 0.0 | 0.03 | 0.42 | 0.05 | 92 | 1011.8 |
| 20260510173548 | 55 | 0 | 0.0 | 0.0 | 0.03 | 0.42 | 0.05 | 92 | 1011.8 |
| 20260510173055 | 55 | 0 | 0.0 | 0.0 | 0.03 | 0.42 | 0.05 | 91 | 1011.8 |
| 20260510172554 | 55 | 0 | 0.0 | 0.0 | 0.03 | 0.42 | 0.05 | 90 | 1011.8 |
| 20260510172048 | 55 | 0 | 0.0 | 0.0 | 0.02 | 0.41 | 0.04 | 90 | 1011.8 |
| 20260510171611 | 55 | 0 | 0.0 | 0.0 | 0.01 | 0.40 | 0.03 | 89 | 1011.8 |
| 20260510171052 | 55 | 0 | 0.0 | 0.0 | 0.01 | 0.40 | 0.03 | 88 | 1011.8 |
| 20260510170552 | 55 | 0 | 0.0 | 0.0 | 0.00 | 0.39 | 0.02 | 87 | 1011.6 |
| 20260510170054 | 55 | 0 | 0.0 | 0.0 | 0.00 | 0.39 | 0.02 | 86 | 1011.8 |
| 20260510165548 | 56 | 0 | 0.0 | 4.0 | 0.00 | 0.40 | 0.02 | 87 | 1011.8 |
| 20260510165048 | 56 | 0 | 0.0 | 4.0 | 0.00 | 0.40 | 0.02 | 87 | 1011.8 |
| 20260510164558 | 56 | 0 | 0.0 | 1.0 | 0.00 | 0.40 | 0.02 | 87 | 1011.8 |
| 20260510164051 | 55 | 0 | 0.0 | 0.0 | 0.00 | 0.40 | 0.02 | 88 | 1011.8 |
| 20260510163553 | 55 | 0 | 0.0 | 0.0 | 0.00 | 0.40 | 0.02 | 88 | 1011.7 |
| 20260510163052 | 55 | 0 | 0.0 | 0.0 | 0.00 | 0.40 | 0.02 | 88 | 1011.7 |
| 20260510162550 | 55 | 0 | 0.0 | 0.0 | 0.00 | 0.40 | 0.02 | 88 | 1011.8 |
| 20260510162050 | 55 | 0 | 0.0 | 0.0 | 0.00 | 0.40 | 0.02 | 89 | 1011.9 |
| 20260510161553 | 54 | 0 | 0.0 | 0.0 | 0.00 | 0.40 | 0.02 | 89 | 1011.9 |
| 20260510161051 | 54 | 0 | 0.0 | 0.0 | 0.00 | 0.40 | 0.02 | 90 | 1012.0 |
| 20260510160551 | 54 | 0 | 0.0 | 0.0 | 0.00 | 0.40 | 0.02 | 90 | 1012.0 |
| 20260510160109 | 54 | 0 | 0.0 | 3.0 | 0.00 | 0.40 | 0.02 | 90 | 1011.8 |
| 20260510155547 | 54 | 0 | 0.0 | 3.0 | 0.00 | 0.40 | 0.02 | 91 | 1011.7 |
| 20260510155050 | 54 | 0 | 0.0 | 2.0 | 0.00 | 0.40 | 0.02 | 91 | 1011.7 |
| 20260510154620 | 54 | 0 | 0.0 | 3.0 | 0.00 | 0.40 | 0.02 | 92 | 1011.7 |
| 20260510154048 | 54 | 0 | 0.0 | 3.0 | 0.00 | 0.40 | 0.02 | 94 | 1011.5 |
| 20260510153549 | 53 | 0 | 0.0 | 1.0 | 0.00 | 0.40 | 0.02 | 95 | 1011.4 |
| 20260510153102 | 53 | 0 | 0.0 | 5.0 | 0.00 | 0.40 | 0.02 | 96 | 1011.5 |
| 20260510152548 | 52 | 0 | 0.0 | 5.0 | 0.00 | 0.40 | 0.02 | 96 | 1011.6 |
| 20260510152049 | 51 | 0 | 0.0 | 5.0 | 0.00 | 0.40 | 0.02 | 96 | 1011.7 |
| 20260510151551 | 51 | 0 | 0.0 | 5.0 | 0.00 | 0.40 | 0.02 | 96 | 1011.9 |
| 20260510151048 | 51 | 0 | 0.0 | 1.0 | 0.00 | 0.40 | 0.02 | 96 | 1011.8 |
| 20260510150550 | 50 | 0 | 0.0 | 0.0 | 0.00 | 0.40 | 0.02 | 96 | 1011.9 |
| 20260510150110 | 50 | 0 | 0.0 | 5.0 | 0.00 | 0.40 | 0.02 | 96 | 1011.9 |
| 20260510145551 | 50 | 0 | 0.0 | 5.0 | 0.00 | 0.40 | 0.02 | 96 | 1011.8 |
| 20260510145050 | 50 | 0 | 0.0 | 5.0 | 0.00 | 0.40 | 0.02 | 96 | 1011.8 |
| 20260510144610 | 50 | 0 | 0.0 | 0.0 | 0.00 | 0.40 | 0.02 | 96 | 1011.7 |
| 20260510144049 | 50 | 0 | 0.0 | 0.0 | 0.00 | 0.40 | 0.02 | 96 | 1011.7 |
| 20260510143550 | 49 | 0 | 0.0 | 0.0 | 0.00 | 0.40 | 0.02 | 96 | 1011.8 |
| 20260510143053 | 49 | 0 | 0.0 | 0.0 | 0.00 | 0.40 | 0.02 | 96 | 1011.8 |
| 20260510142548 | 49 | 0 | 0.0 | 0.0 | 0.00 | 0.40 | 0.02 | 96 | 1011.7 |
| 20260510142048 | 49 | 0 | 0.0 | 0.0 | 0.00 | 0.40 | 0.02 | 96 | 1011.8 |
| 20260510141551 | 49 | 0 | 0.0 | 0.0 | 0.00 | 0.40 | 0.02 | 96 | 1011.9 |
| 20260510141048 | 49 | 0 | 0.0 | 2.0 | 0.00 | 0.40 | 0.02 | 96 | 1012.0 |
| 20260510140547 | 49 | 0 | 0.0 | 2.0 | 0.00 | 0.40 | 0.02 | 96 | 1012.1 |
| 20260510140052 | 49 | 0 | 0.0 | 0.0 | 0.00 | 0.40 | 0.02 | 96 | 1011.9 |
| 20260510135549 | 49 | 0 | 0.0 | 0.0 | 0.00 | 0.40 | 0.02 | 96 | 1011.9 |
| 20260510135051 | 49 | 0 | 0.0 | 0.0 | 0.00 | 0.40 | 0.02 | 96 | 1012.0 |
| 20260510134552 | 48 | 0 | 0.0 | 3.0 | 0.00 | 0.40 | 0.02 | 96 | 1011.8 |
| 20260510134047 | 48 | 0 | 0.0 | 3.0 | 0.00 | 0.40 | 0.02 | 96 | 1011.6 |
| 20260510133547 | 48 | 0 | 0.0 | 2.0 | 0.00 | 0.40 | 0.02 | 97 | 1011.6 |
| 20260510133052 | 48 | 0 | 0.0 | 0.0 | 0.00 | 0.40 | 0.02 | 96 | 1011.6 |
| 20260510132548 | 48 | 0 | 0.0 | 0.0 | 0.00 | 0.40 | 0.02 | 96 | 1011.5 |
| 20260510132049 | 48 | 0 | 0.0 | 0.0 | 0.00 | 0.40 | 0.02 | 96 | 1011.7 |
| 20260510131554 | 48 | 0 | 0.0 | 0.0 | 0.00 | 0.40 | 0.02 | 96 | 1011.9 |
| 20260510131051 | 48 | 0 | 0.0 | 0.0 | 0.00 | 0.40 | 0.02 | 96 | 1012.1 |
| 20260510130548 | 48 | 0 | 0.0 | 0.0 | 0.00 | 0.40 | 0.02 | 96 | 1011.9 |
| 20260510130056 | 48 | 0 | 0.0 | 0.0 | 0.00 | 0.40 | 0.02 | 96 | 1011.8 |
| 20260510125547 | 47 | 0 | 0.0 | 0.0 | 0.00 | 0.40 | 0.02 | 96 | 1011.7 |
| 20260510125049 | 47 | 0 | 0.0 | 0.0 | 0.00 | 0.40 | 0.02 | 96 | 1011.8 |
| 20260510124552 | 47 | 0 | 0.0 | 0.0 | 0.00 | 0.40 | 0.02 | 96 | 1011.8 |
| 20260510124051 | 47 | 0 | 0.0 | 0.0 | 0.00 | 0.40 | 0.02 | 96 | 1011.7 |
| 20260510123552 | 47 | 0 | 0.0 | 2.0 | 0.00 | 0.40 | 0.02 | 96 | 1011.8 |
| 20260510123055 | 47 | 0 | 0.0 | 2.0 | 0.00 | 0.40 | 0.02 | 96 | 1011.8 |
| 20260510122550 | 47 | 0 | 0.0 | 2.0 | 0.00 | 0.40 | 0.02 | 96 | 1011.8 |
| 20260510122050 | 47 | 0 | 0.0 | 0.0 | 0.00 | 0.40 | 0.02 | 96 | 1011.8 |
| 20260510121600 | 46 | 0 | 0.0 | 0.0 | 0.00 | 0.40 | 0.02 | 96 | 1011.6 |
| 20260510121052 | 46 | 0 | 0.0 | 0.0 | 0.00 | 0.40 | 0.02 | 96 | 1011.4 |
| 20260510120552 | 46 | 0 | 0.0 | 0.0 | 0.00 | 0.40 | 0.02 | 96 | 1011.4 |
| 20260510120052 | 46 | 0 | 0.0 | 0.0 | 0.00 | 0.40 | 0.02 | 96 | 1011.7 |
| 20260510115552 | 46 | 0 | 0.0 | 0.0 | 0.00 | 0.40 | 0.02 | 96 | 1011.6 |
| 20260510115051 | 46 | 0 | 0.0 | 0.0 | 0.00 | 0.40 | 0.02 | 96 | 1011.7 |
| 20260510114555 | 46 | 0 | 0.0 | 0.0 | 0.00 | 0.40 | 0.02 | 96 | 1011.6 |
| 20260510114050 | 45 | 0 | 0.0 | 0.0 | 0.00 | 0.40 | 0.02 | 96 | 1011.8 |
| 20260510113551 | 45 | 0 | 0.0 | 0.0 | 0.00 | 0.40 | 0.02 | 96 | 1011.6 |
| 20260510113056 | 45 | 0 | 0.0 | 0.0 | 0.00 | 0.40 | 0.02 | 96 | 1011.6 |
| 20260510112551 | 45 | 0 | 0.0 | 0.0 | 0.00 | 0.40 | 0.02 | 96 | 1011.6 |
| 20260510112052 | 45 | 0 | 0.0 | 0.0 | 0.00 | 0.40 | 0.02 | 96 | 1011.5 |
| 20260510111555 | 45 | 0 | 0.0 | 0.0 | 0.00 | 0.40 | 0.02 | 96 | 1011.7 |
| 20260510111050 | 45 | 0 | 0.0 | 0.0 | 0.00 | 0.40 | 0.02 | 96 | 1011.3 |
| 20260510110549 | 45 | 0 | 0.0 | 0.0 | 0.00 | 0.40 | 0.02 | 96 | 1011.4 |
| 20260510110059 | 45 | 0 | 0.0 | 0.0 | 0.00 | 0.40 | 0.02 | 96 | 1011.3 |
| 20260510105555 | 44 | 0 | 0.0 | 0.0 | 0.00 | 0.40 | 0.02 | 96 | 1011.3 |
| 20260510105052 | 44 | 0 | 0.0 | 0.0 | 0.00 | 0.40 | 0.02 | 96 | 1011.2 |
| 20260510104608 | 44 | 0 | 0.0 | 0.0 | 0.00 | 0.40 | 0.02 | 96 | 1011.2 |
| 20260510104052 | 44 | 0 | 0.0 | 0.0 | 0.00 | 0.40 | 0.02 | 96 | 1011.1 |
| 20260510103552 | 44 | 0 | 0.0 | 0.0 | 0.00 | 0.40 | 0.02 | 96 | 1010.8 |
| 20260510103058 | 44 | 0 | 0.0 | 0.0 | 0.00 | 0.40 | 0.02 | 96 | 1010.7 |
| 20260510102552 | 44 | 0 | 0.0 | 0.0 | 0.00 | 0.40 | 0.02 | 96 | 1010.3 |
| 20260510102052 | 44 | 0 | 0.0 | 0.0 | 0.00 | 0.40 | 0.02 | 96 | 1010.4 |
| 20260510101602 | 44 | 0 | 0.0 | 0.0 | 0.00 | 0.40 | 0.02 | 96 | 1010.6 |
| 20260510101052 | 44 | 0 | 0.0 | 0.0 | 0.00 | 0.40 | 0.02 | 96 | 1010.8 |
| 20260510100551 | 44 | 0 | 0.0 | 0.0 | 0.00 | 0.40 | 0.02 | 96 | 1010.4 |
| 20260510100057 | 44 | 0 | 0.0 | 0.0 | 0.00 | 0.40 | 0.02 | 96 | 1010.6 |
| 20260510095552 | 44 | 0 | 0.0 | 0.0 | 0.00 | 0.40 | 0.02 | 96 | 1010.7 |
| 20260510095050 | 44 | 0 | 0.0 | 0.0 | 0.00 | 0.40 | 0.02 | 96 | 1010.4 |
| 20260510094614 | 44 | 0 | 0.0 | 0.0 | 0.00 | 0.40 | 0.02 | 96 | 1010.1 |
| 20260510094050 | 44 | 0 | 0.0 | 0.0 | 0.00 | 0.40 | 0.02 | 96 | 1010.3 |
| 20260510093551 | 44 | 0 | 0.0 | 0.0 | 0.00 | 0.40 | 0.02 | 96 | 1010.3 |
| 20260510093057 | 44 | 0 | 0.0 | 0.0 | 0.00 | 0.40 | 0.02 | 96 | 1010.1 |
| 20260510092553 | 44 | 0 | 0.0 | 0.0 | 0.00 | 0.40 | 0.02 | 96 | 1010.4 |
| 20260510092050 | 44 | 0 | 0.0 | 0.0 | 0.00 | 0.40 | 0.02 | 96 | 1010.4 |
| 20260510091557 | 44 | 0 | 0.0 | 0.0 | 0.00 | 0.40 | 0.02 | 96 | 1010.4 |
| 20260510091050 | 44 | 0 | 0.0 | 0.0 | 0.00 | 0.40 | 0.02 | 96 | 1010.4 |
| 20260510090555 | 44 | 0 | 0.0 | 0.0 | 0.00 | 0.40 | 0.02 | 96 | 1010.4 |
| 20260510090055 | 44 | 0 | 0.0 | 0.0 | 0.00 | 0.40 | 0.02 | 96 | 1010.3 |
| 20260510085551 | 44 | 0 | 0.0 | 0.0 | 0.00 | 0.40 | 0.02 | 96 | 1010.3 |
| 20260510085051 | 44 | 0 | 0.0 | 0.0 | 0.00 | 0.40 | 0.02 | 96 | 1010.4 |
| 20260510084600 | 44 | 0 | 0.0 | 0.0 | 0.00 | 0.40 | 0.02 | 96 | 1010.7 |
| 20260510084052 | 44 | 0 | 0.0 | 0.0 | 0.00 | 0.40 | 0.02 | 96 | 1010.7 |
| 20260510083552 | 44 | 0 | 0.0 | 0.0 | 0.00 | 0.40 | 0.02 | 95 | 1010.7 |
| 20260510083114 | 44 | 0 | 0.0 | 0.0 | 0.01 | 0.40 | 0.02 | 95 | 1010.8 |
| 20260510082548 | 44 | 0 | 0.0 | 0.0 | 0.01 | 0.40 | 0.02 | 95 | 1010.7 |
| 20260510082052 | 44 | 0 | 0.0 | 0.0 | 0.01 | 0.40 | 0.02 | 95 | 1010.8 |
| 20260510081611 | 44 | 0 | 0.0 | 0.0 | 0.01 | 0.40 | 0.02 | 95 | 1010.6 |
| 20260510081052 | 44 | 0 | 0.0 | 0.0 | 0.01 | 0.40 | 0.02 | 95 | 1010.7 |
| 20260510080550 | 44 | 0 | 0.0 | 0.0 | 0.01 | 0.40 | 0.02 | 95 | 1010.6 |
| 20260510080053 | 44 | 0 | 0.0 | 0.0 | 0.01 | 0.40 | 0.02 | 95 | 1010.3 |
| 20260510075552 | 44 | 0 | 0.0 | 0.0 | 0.01 | 0.40 | 0.02 | 95 | 1010.1 |
| 20260510075054 | 44 | 0 | 0.0 | 0.0 | 0.01 | 0.40 | 0.02 | 95 | 1010.0 |
| 20260510074603 | 44 | 0 | 0.0 | 0.0 | 0.01 | 0.40 | 0.02 | 95 | 1010.6 |
| 20260510074056 | 44 | 0 | 0.0 | 0.0 | 0.01 | 0.40 | 0.02 | 95 | 1010.4 |
| 20260510073551 | 44 | 0 | 0.0 | 0.0 | 0.01 | 0.40 | 0.02 | 95 | 1010.9 |
| 20260510073056 | 44 | 0 | 0.0 | 0.0 | 0.00 | 0.39 | 0.01 | 95 | 1010.9 |
| 20260510072552 | 44 | 0 | 0.0 | 0.0 | 0.00 | 0.39 | 0.01 | 95 | 1011.2 |
| 20260510072052 | 44 | 0 | 0.0 | 0.0 | 0.00 | 0.39 | 0.01 | 95 | 1011.2 |
| 20260510071553 | 44 | 0 | 0.0 | 0.0 | 0.01 | 0.39 | 0.01 | 95 | 1011.0 |
| 20260510071051 | 44 | 0 | 0.0 | 0.0 | 0.01 | 0.39 | 0.01 | 95 | 1011.0 |
| 20260510070551 | 44 | 0 | 0.0 | 0.0 | 0.01 | 0.39 | 0.01 | 95 | 1010.9 |
| 20260510070057 | 44 | 0 | 0.0 | 0.0 | 0.01 | 0.39 | 0.01 | 95 | 1011.0 |
| 20260510065551 | 44 | 0 | 0.0 | 0.0 | 0.01 | 0.39 | 0.01 | 95 | 1011.0 |
| 20260510065051 | 44 | 0 | 0.0 | 0.0 | 0.01 | 0.39 | 0.01 | 95 | 1011.0 |
| 20260510064600 | 44 | 0 | 0.0 | 0.0 | 0.01 | 0.39 | 0.01 | 95 | 1011.0 |
| 20260510064051 | 44 | 0 | 0.0 | 0.0 | 0.01 | 0.39 | 0.01 | 95 | 1011.0 |
| 20260510063552 | 44 | 0 | 0.0 | 0.0 | 0.01 | 0.39 | 0.01 | 95 | 1011.0 |
| 20260510063057 | 44 | 0 | 0.0 | 0.0 | 0.01 | 0.39 | 0.01 | 95 | 1010.9 |
| 20260510062554 | 44 | 0 | 0.0 | 0.0 | 0.01 | 0.39 | 0.01 | 95 | 1011.0 |
| 20260510062049 | 44 | 0 | 0.0 | 0.0 | 0.01 | 0.39 | 0.01 | 95 | 1011.1 |
| 20260510061602 | 44 | 0 | 0.0 | 0.0 | 0.00 | 0.38 | 0.00 | 95 | 1011.1 |
| 20260510061052 | 44 | 0 | 0.0 | 0.0 | 0.00 | 0.38 | 0.00 | 95 | 1011.0 |
| 20260510060552 | 44 | 0 | 0.0 | 0.0 | 0.00 | 0.38 | 0.00 | 95 | 1010.9 |
| 20260510060053 | 44 | 0 | 0.0 | 0.0 | 0.00 | 0.38 | 0.00 | 95 | 1010.8 |
| 20260510055551 | 44 | 0 | 0.0 | 0.0 | 0.00 | 0.38 | 0.00 | 95 | 1010.9 |
| 20260510055051 | 44 | 0 | 0.0 | 0.0 | 0.00 | 0.38 | 0.00 | 95 | 1010.9 |
| 20260510054552 | 44 | 0 | 0.0 | 0.0 | 0.00 | 0.38 | 0.00 | 95 | 1010.9 |
| 20260510054050 | 44 | 0 | 0.0 | 0.0 | 0.00 | 0.38 | 0.00 | 95 | 1011.0 |
| 20260510053555 | 44 | 0 | 0.0 | 0.0 | 0.00 | 0.38 | 0.00 | 95 | 1011.2 |
| 20260510053057 | 44 | 0 | 0.0 | 0.0 | 0.00 | 0.38 | 0.00 | 95 | 1011.3 |
| 20260510052552 | 44 | 0 | 0.0 | 0.0 | 0.00 | 0.38 | 0.00 | 95 | 1011.2 |
| 20260510052051 | 44 | 0 | 0.0 | 0.0 | 0.00 | 0.38 | 0.00 | 95 | 1011.3 |
| 20260510051554 | 44 | 0 | 0.0 | 0.0 | 0.00 | 0.38 | 0.00 | 95 | 1011.3 |
| 20260510051052 | 44 | 0 | 0.0 | 0.0 | 0.00 | 0.38 | 0.00 | 95 | 1011.2 |
| 20260510050551 | 44 | 0 | 0.0 | 0.0 | 0.00 | 0.38 | 0.00 | 95 | 1011.3 |
| 20260510050052 | 44 | 0 | 0.0 | 0.0 | 0.00 | 0.38 | 0.00 | 95 | 1011.2 |
| 20260510045552 | 44 | 0 | 0.0 | 0.0 | 0.00 | 0.38 | 0.00 | 95 | 1011.3 |
| 20260510045052 | 44 | 0 | 0.0 | 0.0 | 0.00 | 0.38 | 0.00 | 95 | 1011.3 |
| 20260510044551 | 44 | 0 | 0.0 | 0.0 | 0.00 | 0.38 | 0.00 | 95 | 1011.3 |
| 20260510044053 | 44 | 0 | 0.0 | 0.0 | 0.00 | 0.38 | 0.00 | 95 | 1011.4 |
| 20260510043551 | 44 | 0 | 0.0 | 0.0 | 0.00 | 0.38 | 0.00 | 95 | 1011.4 |
| 20260510043100 | 44 | 0 | 0.0 | 0.0 | 0.00 | 0.38 | 0.00 | 95 | 1011.5 |
| 20260510042553 | 44 | 0 | 0.0 | 0.0 | 0.00 | 0.38 | 0.00 | 95 | 1011.4 |
| 20260510042055 | 44 | 0 | 0.0 | 0.0 | 0.00 | 0.38 | 0.00 | 95 | 1011.4 |
| 20260510041552 | 44 | 0 | 0.0 | 0.0 | 0.00 | 0.38 | 0.00 | 95 | 1011.2 |
| 20260510041051 | 43 | 0 | 0.0 | 0.0 | 0.00 | 0.38 | 0.00 | 95 | 1011.4 |
| 20260510040551 | 44 | 0 | 0.0 | 0.0 | 0.00 | 0.38 | 0.00 | 95 | 1011.3 |
| 20260510040104 | 43 | 0 | 0.0 | 0.0 | 0.00 | 0.38 | 0.00 | 95 | 1011.3 |
| 20260510035552 | 43 | 0 | 0.0 | 0.0 | 0.00 | 0.38 | 0.38 | 95 | 1011.4 |
| 20260510035051 | 43 | 0 | 0.0 | 0.0 | 0.00 | 0.38 | 0.38 | 95 | 1011.4 |
| 20260510034559 | 43 | 0 | 0.0 | 0.0 | 0.00 | 0.38 | 0.38 | 95 | 1011.5 |
| 20260510034052 | 44 | 0 | 0.0 | 0.0 | 0.00 | 0.38 | 0.38 | 95 | 1011.5 |
| 20260510033553 | 44 | 0 | 0.0 | 0.0 | 0.00 | 0.38 | 0.38 | 95 | 1011.5 |
| 20260510033053 | 44 | 0 | 0.0 | 0.0 | 0.00 | 0.38 | 0.38 | 95 | 1011.6 |
| 20260510032551 | 44 | 0 | 0.0 | 0.0 | 0.00 | 0.38 | 0.38 | 95 | 1011.6 |
| 20260510032051 | 44 | 0 | 0.0 | 0.0 | 0.00 | 0.38 | 0.38 | 95 | 1011.6 |
| 20260510031602 | 44 | 0 | 0.0 | 0.0 | 0.00 | 0.38 | 0.38 | 95 | 1011.7 |
| 20260510031048 | 44 | 0 | 0.0 | 0.0 | 0.00 | 0.38 | 0.38 | 95 | 1011.7 |
| 20260510030553 | 44 | 0 | 0.0 | 0.0 | 0.00 | 0.38 | 0.38 | 95 | 1011.9 |
| 20260510030057 | 44 | 0 | 0.0 | 0.0 | 0.00 | 0.38 | 0.38 | 95 | 1011.9 |
| 20260510025551 | 44 | 0 | 0.0 | 0.0 | 0.00 | 0.38 | 0.38 | 95 | 1011.8 |
| 20260510025052 | 44 | 0 | 0.0 | 0.0 | 0.00 | 0.38 | 0.38 | 95 | 1011.8 |
| 20260510024553 | 44 | 0 | 0.0 | 0.0 | 0.00 | 0.38 | 0.38 | 95 | 1011.9 |
| 20260510024054 | 44 | 0 | 0.0 | 0.0 | 0.00 | 0.38 | 0.38 | 95 | 1011.8 |
| 20260510023550 | 44 | 0 | 0.0 | 0.0 | 0.00 | 0.38 | 0.38 | 95 | 1011.9 |
| 20260510023052 | 44 | 0 | 0.0 | 0.0 | 0.00 | 0.38 | 0.38 | 95 | 1011.9 |
| 20260510022551 | 43 | 0 | 0.0 | 0.0 | 0.00 | 0.38 | 0.38 | 95 | 1011.8 |
| 20260510022052 | 44 | 0 | 0.0 | 0.0 | 0.00 | 0.38 | 0.38 | 94 | 1012.1 |
| 20260510021552 | 44 | 0 | 0.0 | 0.0 | 0.00 | 0.38 | 0.38 | 94 | 1012.1 |
| 20260510021051 | 44 | 0 | 0.0 | 0.0 | 0.00 | 0.38 | 0.38 | 94 | 1012.2 |
| 20260510020551 | 44 | 0 | 0.0 | 2.0 | 0.00 | 0.38 | 0.38 | 94 | 1012.1 |
| 20260510020051 | 44 | 0 | 0.0 | 3.0 | 0.00 | 0.38 | 0.38 | 94 | 1012.1 |
| 20260510015551 | 44 | 0 | 0.0 | 3.0 | 0.00 | 0.38 | 0.38 | 94 | 1011.8 |
| 20260510015051 | 44 | 0 | 0.0 | 1.0 | 0.00 | 0.38 | 0.38 | 94 | 1011.9 |
| 20260510014554 | 44 | 0 | 0.0 | 2.0 | 0.00 | 0.38 | 0.38 | 94 | 1012.0 |
| 20260510014051 | 44 | 0 | 0.0 | 3.0 | 0.00 | 0.38 | 0.38 | 94 | 1012.1 |
| 20260510013548 | 44 | 0 | 0.0 | 4.0 | 0.00 | 0.38 | 0.38 | 94 | 1012.3 |
| 20260510013106 | 44 | 0 | 0.0 | 4.0 | 0.00 | 0.38 | 0.38 | 94 | 1012.1 |
| 20260510012548 | 44 | 0 | 0.0 | 2.0 | 0.00 | 0.38 | 0.38 | 94 | 1012.4 |
| 20260510012052 | 44 | 0 | 0.0 | 1.0 | 0.00 | 0.38 | 0.38 | 94 | 1012.4 |
| 20260510011552 | 44 | 0 | 0.0 | 0.0 | 0.00 | 0.38 | 0.38 | 94 | 1012.3 |
| 20260510011051 | 44 | 0 | 0.0 | 0.0 | 0.00 | 0.38 | 0.38 | 94 | 1012.3 |
| 20260510010551 | 44 | 0 | 0.0 | 4.0 | 0.00 | 0.38 | 0.38 | 94 | 1012.2 |
| 20260510010056 | 44 | 0 | 0.0 | 5.0 | 0.00 | 0.38 | 0.38 | 94 | 1012.2 |
| 20260510005552 | 44 | 0 | 0.0 | 5.0 | 0.00 | 0.38 | 0.38 | 94 | 1012.1 |
| 20260510005048 | 44 | 0 | 0.0 | 5.0 | 0.00 | 0.38 | 0.38 | 94 | 1012.0 |
| 20260510004551 | 44 | 0 | 0.0 | 0.0 | 0.00 | 0.38 | 0.38 | 94 | 1012.2 |
| 20260510004051 | 44 | 0 | 0.0 | 0.0 | 0.00 | 0.38 | 0.38 | 94 | 1012.2 |
| 20260510003549 | 44 | 0 | 0.0 | 0.0 | 0.00 | 0.38 | 0.38 | 94 | 1012.1 |
| 20260510003054 | 44 | 0 | 0.0 | 0.0 | 0.01 | 0.38 | 0.38 | 94 | 1012.1 |
| 20260510002550 | 44 | 0 | 0.0 | 0.0 | 0.01 | 0.38 | 0.38 | 94 | 1011.7 |
| 20260510002048 | 44 | 0 | 0.0 | 2.0 | 0.01 | 0.38 | 0.38 | 94 | 1011.7 |
| 20260510001554 | 44 | 0 | 0.0 | 2.0 | 0.01 | 0.38 | 0.38 | 94 | 1011.7 |
| 20260510001049 | 44 | 0 | 0.0 | 0.0 | 0.01 | 0.38 | 0.38 | 94 | 1011.5 |
| 20260510000549 | 44 | 0 | 0.0 | 4.0 | 0.01 | 0.38 | 0.38 | 94 | 1011.5 |
| 20260510000052 | 44 | 0 | 0.0 | 4.0 | 0.01 | 0.38 | 0.38 | 94 | 1011.4 |
| 20260509235551 | 44 | 0 | 0.0 | 4.0 | 0.01 | 0.38 | 0.38 | 94 | 1011.4 |
| 20260509235051 | 44 | 0 | 0.0 | 2.0 | 0.01 | 0.38 | 0.38 | 94 | 1011.5 |
| 20260509234552 | 44 | 0 | 0.0 | 7.0 | 0.01 | 0.38 | 0.38 | 94 | 1011.5 |
| 20260509234050 | 44 | 0 | 0.0 | 7.0 | 0.02 | 0.38 | 0.38 | 94 | 1011.5 |
| 20260509233553 | 44 | 0 | 0.0 | 7.0 | 0.02 | 0.38 | 0.38 | 94 | 1011.4 |
| 20260509233055 | 44 | 0 | 0.0 | 1.0 | 0.01 | 0.37 | 0.37 | 94 | 1011.4 |
| 20260509232551 | 44 | 0 | 0.0 | 5.0 | 0.01 | 0.37 | 0.37 | 94 | 1011.5 |
| 20260509232049 | 44 | 0 | 0.0 | 6.0 | 0.01 | 0.37 | 0.37 | 94 | 1011.6 |
| 20260509231600 | 44 | 0 | 0.0 | 6.0 | 0.02 | 0.37 | 0.37 | 94 | 1011.5 |
| 20260509231049 | 44 | 0 | 0.0 | 4.0 | 0.02 | 0.37 | 0.37 | 94 | 1011.5 |
| 20260509230549 | 44 | 0 | 0.0 | 4.0 | 0.03 | 0.37 | 0.37 | 94 | 1011.5 |
| 20260509230052 | 44 | 0 | 0.0 | 7.0 | 0.03 | 0.37 | 0.37 | 94 | 1011.7 |
| 20260509225550 | 45 | 0 | 0.0 | 7.0 | 0.04 | 0.37 | 0.37 | 94 | 1011.6 |
| 20260509225050 | 45 | 0 | 0.0 | 7.0 | 0.04 | 0.37 | 0.37 | 93 | 1011.5 |
| 20260509224551 | 45 | 104 | 0.0 | 10.0 | 0.04 | 0.37 | 0.37 | 93 | 1011.6 |
| 20260509224051 | 45 | 138 | 0.0 | 10.0 | 0.03 | 0.36 | 0.36 | 93 | 1011.7 |
| 20260509223552 | 45 | 0 | 0.0 | 10.0 | 0.03 | 0.36 | 0.36 | 93 | 1011.5 |
| 20260509223056 | 45 | 0 | 0.0 | 2.0 | 0.03 | 0.36 | 0.36 | 93 | 1011.6 |
| 20260509222551 | 45 | 0 | 0.0 | 2.0 | 0.03 | 0.36 | 0.36 | 93 | 1011.6 |
| 20260509222049 | 45 | 0 | 0.0 | 0.0 | 0.04 | 0.36 | 0.36 | 93 | 1011.7 |
| 20260509221554 | 45 | 0 | 0.0 | 3.0 | 0.03 | 0.35 | 0.35 | 93 | 1011.9 |
| 20260509221051 | 45 | 0 | 0.0 | 5.0 | 0.03 | 0.35 | 0.35 | 93 | 1011.8 |
| 20260509220551 | 45 | 0 | 0.0 | 5.0 | 0.02 | 0.34 | 0.34 | 93 | 1011.8 |
| 20260509220057 | 45 | 0 | 0.0 | 5.0 | 0.02 | 0.34 | 0.34 | 93 | 1011.7 |
| 20260509215548 | 45 | 0 | 0.0 | 6.0 | 0.02 | 0.33 | 0.33 | 93 | 1011.7 |
| 20260509215051 | 45 | 0 | 0.0 | 9.0 | 0.02 | 0.33 | 0.33 | 93 | 1011.8 |
| 20260509214554 | 45 | 0 | 0.0 | 9.0 | 0.03 | 0.33 | 0.33 | 93 | 1011.8 |
| 20260509214050 | 45 | 0 | 0.0 | 5.0 | 0.03 | 0.33 | 0.33 | 93 | 1011.9 |
| 20260509213551 | 45 | 90 | 0.0 | 5.0 | 0.03 | 0.33 | 0.33 | 93 | 1011.7 |
| 20260509213053 | 45 | 0 | 0.0 | 5.0 | 0.04 | 0.33 | 0.33 | 93 | 1011.8 |
| 20260509212555 | 45 | 0 | 0.0 | 5.0 | 0.04 | 0.33 | 0.33 | 93 | 1011.8 |
| 20260509212051 | 45 | 0 | 0.0 | 4.0 | 0.03 | 0.32 | 0.32 | 93 | 1011.8 |